sensor_id;sensor_type;location;lat;lon;timestamp;temperature;humidity
79024;DHT22;70306;44.764;37.688;2024-01-27T00:00:39;5.66;80.90
79024;DHT22;70306;44.764;37.688;2024-01-27T00:01:41;5.66;81.03
79024;DHT22;70306;44.764;37.688;2024-01-27T00:02:44;5.61;80.78
79024;DHT22;70306;44.764;37.688;2024-01-27T00:03:45;5.63;81.20
79024;DHT22;70306;44.764;37.688;2024-01-27T00:04:48;5.66;81.30
79024;DHT22;70306;44.764;37.688;2024-01-27T00:05:50;5.63;81.06
79024;DHT22;70306;44.764;37.688;2024-01-27T00:06:52;5.60;80.47
79024;DHT22;70306;44.764;37.688;2024-01-27T00:07:54;5.54;80.29
79024;DHT22;70306;44.764;37.688;2024-01-27T00:08:56;5.56;80.43
79024;DHT22;70306;44.764;37.688;2024-01-27T00:09:58;5.56;80.58
79024;DHT22;70306;44.764;37.688;2024-01-27T00:11:03;5.60;80.67
79024;DHT22;70306;44.764;37.688;2024-01-27T00:12:06;5.61;80.73
79024;DHT22;70306;44.764;37.688;2024-01-27T00:13:08;5.61;80.82
79024;DHT22;70306;44.764;37.688;2024-01-27T00:14:10;5.61;81.03
79024;DHT22;70306;44.764;37.688;2024-01-27T00:15:12;5.61;81.07
79024;DHT22;70306;44.764;37.688;2024-01-27T00:16:14;5.60;81.09
79024;DHT22;70306;44.764;37.688;2024-01-27T00:17:16;5.57;81.10
79024;DHT22;70306;44.764;37.688;2024-01-27T00:18:18;5.60;81.27
79024;DHT22;70306;44.764;37.688;2024-01-27T00:19:20;5.64;81.43
79024;DHT22;70306;44.764;37.688;2024-01-27T00:20:22;5.63;81.51
79024;DHT22;70306;44.764;37.688;2024-01-27T00:21:25;5.70;81.52
79024;DHT22;70306;44.764;37.688;2024-01-27T00:22:27;5.70;81.50
79024;DHT22;70306;44.764;37.688;2024-01-27T00:23:29;5.74;81.58
79024;DHT22;70306;44.764;37.688;2024-01-27T00:24:31;5.75;81.50
79024;DHT22;70306;44.764;37.688;2024-01-27T00:25:33;5.78;81.53
79024;DHT22;70306;44.764;37.688;2024-01-27T00:26:35;5.84;81.62
79024;DHT22;70306;44.764;37.688;2024-01-27T00:27:37;5.87;81.59
79024;DHT22;70306;44.764;37.688;2024-01-27T00:28:39;5.88;81.53
79024;DHT22;70306;44.764;37.688;2024-01-27T00:29:41;5.88;81.20
79024;DHT22;70306;44.764;37.688;2024-01-27T00:30:43;5.88;81.19
79024;DHT22;70306;44.764;37.688;2024-01-27T00:31:45;5.88;81.33
79024;DHT22;70306;44.764;37.688;2024-01-27T00:32:48;5.90;81.27
79024;DHT22;70306;44.764;37.688;2024-01-27T00:33:50;5.95;81.30
79024;DHT22;70306;44.764;37.688;2024-01-27T00:34:52;5.95;81.26
79024;DHT22;70306;44.764;37.688;2024-01-27T00:35:54;5.98;81.09
79024;DHT22;70306;44.764;37.688;2024-01-27T00:36:56;5.91;80.67
79024;DHT22;70306;44.764;37.688;2024-01-27T00:37:58;5.83;80.51
79024;DHT22;70306;44.764;37.688;2024-01-27T00:39:00;5.81;80.80
79024;DHT22;70306;44.764;37.688;2024-01-27T00:40:03;5.79;81.08
79024;DHT22;70306;44.764;37.688;2024-01-27T00:41:05;5.77;81.20
79024;DHT22;70306;44.764;37.688;2024-01-27T00:42:07;5.77;81.23
79024;DHT22;70306;44.764;37.688;2024-01-27T00:43:09;5.78;81.28
79024;DHT22;70306;44.764;37.688;2024-01-27T00:44:11;5.74;81.19
79024;DHT22;70306;44.764;37.688;2024-01-27T00:45:13;5.74;81.32
79024;DHT22;70306;44.764;37.688;2024-01-27T00:46:16;5.74;81.33
79024;DHT22;70306;44.764;37.688;2024-01-27T00:47:18;5.75;81.35
79024;DHT22;70306;44.764;37.688;2024-01-27T00:48:20;5.77;81.39
79024;DHT22;70306;44.764;37.688;2024-01-27T00:49:22;5.75;81.33
79024;DHT22;70306;44.764;37.688;2024-01-27T00:50:24;5.74;81.12
79024;DHT22;70306;44.764;37.688;2024-01-27T00:51:26;5.71;81.07
79024;DHT22;70306;44.764;37.688;2024-01-27T00:52:29;5.68;81.13
79024;DHT22;70306;44.764;37.688;2024-01-27T00:53:31;5.70;81.20
79024;DHT22;70306;44.764;37.688;2024-01-27T00:54:33;5.68;81.28
79024;DHT22;70306;44.764;37.688;2024-01-27T00:55:35;5.70;81.25
79024;DHT22;70306;44.764;37.688;2024-01-27T00:56:37;5.70;81.23
79024;DHT22;70306;44.764;37.688;2024-01-27T00:57:39;5.67;81.38
79024;DHT22;70306;44.764;37.688;2024-01-27T00:58:41;5.68;81.40
79024;DHT22;70306;44.764;37.688;2024-01-27T00:59:43;5.73;81.47
79024;DHT22;70306;44.764;37.688;2024-01-27T01:00:45;5.73;81.33
79024;DHT22;70306;44.764;37.688;2024-01-27T01:01:47;5.71;81.44
79024;DHT22;70306;44.764;37.688;2024-01-27T01:02:49;5.74;81.47
79024;DHT22;70306;44.764;37.688;2024-01-27T01:03:51;5.74;81.39
79024;DHT22;70306;44.764;37.688;2024-01-27T01:04:54;5.78;81.39
79024;DHT22;70306;44.764;37.688;2024-01-27T01:05:56;5.78;80.97
79024;DHT22;70306;44.764;37.688;2024-01-27T01:06:58;5.77;80.90
79024;DHT22;70306;44.764;37.688;2024-01-27T01:08:00;5.73;81.00
79024;DHT22;70306;44.764;37.688;2024-01-27T01:09:02;5.74;80.90
79024;DHT22;70306;44.764;37.688;2024-01-27T01:10:05;5.71;80.91
79024;DHT22;70306;44.764;37.688;2024-01-27T01:11:07;5.71;80.89
79024;DHT22;70306;44.764;37.688;2024-01-27T01:12:10;5.73;80.88
79024;DHT22;70306;44.764;37.688;2024-01-27T01:13:12;5.70;80.96
79024;DHT22;70306;44.764;37.688;2024-01-27T01:14:14;5.71;81.04
79024;DHT22;70306;44.764;37.688;2024-01-27T01:15:16;5.71;81.12
79024;DHT22;70306;44.764;37.688;2024-01-27T01:16:18;5.73;81.18
79024;DHT22;70306;44.764;37.688;2024-01-27T01:17:22;5.73;81.11
79024;DHT22;70306;44.764;37.688;2024-01-27T01:18:24;5.73;81.13
79024;DHT22;70306;44.764;37.688;2024-01-27T01:19:26;5.68;81.21
79024;DHT22;70306;44.764;37.688;2024-01-27T01:20:28;5.73;81.22
79024;DHT22;70306;44.764;37.688;2024-01-27T01:21:31;5.73;81.37
79024;DHT22;70306;44.764;37.688;2024-01-27T01:22:33;5.71;81.27
79024;DHT22;70306;44.764;37.688;2024-01-27T01:23:35;5.74;81.07
79024;DHT22;70306;44.764;37.688;2024-01-27T01:24:37;5.74;80.91
79024;DHT22;70306;44.764;37.688;2024-01-27T01:25:39;5.73;81.07
79024;DHT22;70306;44.764;37.688;2024-01-27T01:26:42;5.74;81.08
79024;DHT22;70306;44.764;37.688;2024-01-27T01:27:44;5.74;81.10
79024;DHT22;70306;44.764;37.688;2024-01-27T01:28:46;5.75;80.92
79024;DHT22;70306;44.764;37.688;2024-01-27T01:29:49;5.75;80.93
79024;DHT22;70306;44.764;37.688;2024-01-27T01:30:51;5.73;80.89
79024;DHT22;70306;44.764;37.688;2024-01-27T01:31:53;5.75;81.09
79024;DHT22;70306;44.764;37.688;2024-01-27T01:32:55;5.75;80.95
79024;DHT22;70306;44.764;37.688;2024-01-27T01:33:57;5.75;80.86
79024;DHT22;70306;44.764;37.688;2024-01-27T01:34:59;5.75;80.94
79024;DHT22;70306;44.764;37.688;2024-01-27T01:36:01;5.74;81.01
79024;DHT22;70306;44.764;37.688;2024-01-27T01:37:03;5.78;81.17
79024;DHT22;70306;44.764;37.688;2024-01-27T01:38:06;5.78;81.14
79024;DHT22;70306;44.764;37.688;2024-01-27T01:39:10;5.79;80.98
79024;DHT22;70306;44.764;37.688;2024-01-27T01:40:12;5.78;80.57
79024;DHT22;70306;44.764;37.688;2024-01-27T01:41:14;5.73;80.34
79024;DHT22;70306;44.764;37.688;2024-01-27T01:42:16;5.77;80.42
79024;DHT22;70306;44.764;37.688;2024-01-27T01:43:18;5.74;80.31
79024;DHT22;70306;44.764;37.688;2024-01-27T01:44:20;5.66;80.04
79024;DHT22;70306;44.764;37.688;2024-01-27T01:45:22;5.67;80.49
79024;DHT22;70306;44.764;37.688;2024-01-27T01:46:25;5.66;80.36
79024;DHT22;70306;44.764;37.688;2024-01-27T01:47:27;5.61;80.43
79024;DHT22;70306;44.764;37.688;2024-01-27T01:48:30;5.58;80.60
79024;DHT22;70306;44.764;37.688;2024-01-27T01:49:32;5.58;80.70
79024;DHT22;70306;44.764;37.688;2024-01-27T01:50:35;5.53;80.57
79024;DHT22;70306;44.764;37.688;2024-01-27T01:51:37;5.51;80.53
79024;DHT22;70306;44.764;37.688;2024-01-27T01:52:39;5.46;80.61
79024;DHT22;70306;44.764;37.688;2024-01-27T01:53:42;5.43;80.95
79024;DHT22;70306;44.764;37.688;2024-01-27T01:54:48;5.35;80.99
79024;DHT22;70306;44.764;37.688;2024-01-27T01:55:50;5.33;81.14
79024;DHT22;70306;44.764;37.688;2024-01-27T01:56:55;5.31;81.19
79024;DHT22;70306;44.764;37.688;2024-01-27T01:57:59;5.35;81.58
79024;DHT22;70306;44.764;37.688;2024-01-27T01:59:01;5.33;81.55
79024;DHT22;70306;44.764;37.688;2024-01-27T02:00:05;5.33;81.53
79024;DHT22;70306;44.764;37.688;2024-01-27T02:01:13;5.32;81.28
79024;DHT22;70306;44.764;37.688;2024-01-27T02:02:16;5.29;81.36
79024;DHT22;70306;44.764;37.688;2024-01-27T02:03:19;5.31;81.64
79024;DHT22;70306;44.764;37.688;2024-01-27T02:04:21;5.29;81.57
79024;DHT22;70306;44.764;37.688;2024-01-27T02:05:23;5.31;81.67
79024;DHT22;70306;44.764;37.688;2024-01-27T02:06:25;5.29;81.71
79024;DHT22;70306;44.764;37.688;2024-01-27T02:07:27;5.36;81.99
79024;DHT22;70306;44.764;37.688;2024-01-27T02:08:29;5.33;81.72
79024;DHT22;70306;44.764;37.688;2024-01-27T02:09:31;5.32;81.75
79024;DHT22;70306;44.764;37.688;2024-01-27T02:10:33;5.31;81.43
79024;DHT22;70306;44.764;37.688;2024-01-27T02:11:38;5.32;81.52
79024;DHT22;70306;44.764;37.688;2024-01-27T02:12:40;5.35;81.58
79024;DHT22;70306;44.764;37.688;2024-01-27T02:13:43;5.33;81.55
79024;DHT22;70306;44.764;37.688;2024-01-27T02:14:45;5.36;81.61
79024;DHT22;70306;44.764;37.688;2024-01-27T02:15:48;5.38;81.52
79024;DHT22;70306;44.764;37.688;2024-01-27T02:16:50;5.40;81.66
79024;DHT22;70306;44.764;37.688;2024-01-27T02:17:53;5.44;81.51
79024;DHT22;70306;44.764;37.688;2024-01-27T02:18:55;5.47;81.60
79024;DHT22;70306;44.764;37.688;2024-01-27T02:19:57;5.47;81.52
79024;DHT22;70306;44.764;37.688;2024-01-27T02:20:59;5.49;81.43
79024;DHT22;70306;44.764;37.688;2024-01-27T02:22:01;5.54;81.33
79024;DHT22;70306;44.764;37.688;2024-01-27T02:23:03;5.54;81.36
79024;DHT22;70306;44.764;37.688;2024-01-27T02:24:09;5.57;81.62
79024;DHT22;70306;44.764;37.688;2024-01-27T02:25:11;5.61;81.41
79024;DHT22;70306;44.764;37.688;2024-01-27T02:26:14;5.61;81.42
79024;DHT22;70306;44.764;37.688;2024-01-27T02:27:16;5.64;81.32
79024;DHT22;70306;44.764;37.688;2024-01-27T02:28:18;5.66;81.25
79024;DHT22;70306;44.764;37.688;2024-01-27T02:29:20;5.68;80.85
79024;DHT22;70306;44.764;37.688;2024-01-27T02:30:22;5.66;80.55
79024;DHT22;70306;44.764;37.688;2024-01-27T02:31:25;5.66;80.65
79024;DHT22;70306;44.764;37.688;2024-01-27T02:32:27;5.68;80.72
79024;DHT22;70306;44.764;37.688;2024-01-27T02:33:29;5.66;80.63
79024;DHT22;70306;44.764;37.688;2024-01-27T02:34:31;5.67;80.50
79024;DHT22;70306;44.764;37.688;2024-01-27T02:35:33;5.64;80.50
79024;DHT22;70306;44.764;37.688;2024-01-27T02:36:35;5.63;80.53
79024;DHT22;70306;44.764;37.688;2024-01-27T02:37:37;5.64;80.38
79024;DHT22;70306;44.764;37.688;2024-01-27T02:38:39;5.63;80.32
79024;DHT22;70306;44.764;37.688;2024-01-27T02:39:41;5.60;80.39
79024;DHT22;70306;44.764;37.688;2024-01-27T02:40:43;5.60;80.25
79024;DHT22;70306;44.764;37.688;2024-01-27T02:41:45;5.54;80.28
79024;DHT22;70306;44.764;37.688;2024-01-27T02:42:47;5.53;80.52
79024;DHT22;70306;44.764;37.688;2024-01-27T02:43:49;5.51;80.47
79024;DHT22;70306;44.764;37.688;2024-01-27T02:44:51;5.47;80.60
79024;DHT22;70306;44.764;37.688;2024-01-27T02:45:53;5.51;80.79
79024;DHT22;70306;44.764;37.688;2024-01-27T02:46:55;5.46;80.82
79024;DHT22;70306;44.764;37.688;2024-01-27T02:47:57;5.44;81.00
79024;DHT22;70306;44.764;37.688;2024-01-27T02:48:59;5.50;81.19
79024;DHT22;70306;44.764;37.688;2024-01-27T02:50:00;5.47;81.06
79024;DHT22;70306;44.764;37.688;2024-01-27T02:51:03;5.49;81.02
79024;DHT22;70306;44.764;37.688;2024-01-27T02:52:05;5.51;81.10
79024;DHT22;70306;44.764;37.688;2024-01-27T02:53:07;5.53;81.15
79024;DHT22;70306;44.764;37.688;2024-01-27T02:54:08;5.53;81.15
79024;DHT22;70306;44.764;37.688;2024-01-27T02:55:10;5.54;80.97
79024;DHT22;70306;44.764;37.688;2024-01-27T02:56:12;5.53;81.11
79024;DHT22;70306;44.764;37.688;2024-01-27T02:57:14;5.51;80.90
79024;DHT22;70306;44.764;37.688;2024-01-27T02:58:18;5.53;81.02
79024;DHT22;70306;44.764;37.688;2024-01-27T02:59:20;5.49;80.93
79024;DHT22;70306;44.764;37.688;2024-01-27T03:00:22;5.54;81.08
79024;DHT22;70306;44.764;37.688;2024-01-27T03:01:24;5.53;81.01
79024;DHT22;70306;44.764;37.688;2024-01-27T03:02:26;5.53;81.13
79024;DHT22;70306;44.764;37.688;2024-01-27T03:03:28;5.53;80.99
79024;DHT22;70306;44.764;37.688;2024-01-27T03:04:30;5.51;80.98
79024;DHT22;70306;44.764;37.688;2024-01-27T03:05:32;5.51;81.11
79024;DHT22;70306;44.764;37.688;2024-01-27T03:06:34;5.53;81.23
79024;DHT22;70306;44.764;37.688;2024-01-27T03:07:35;5.51;81.10
79024;DHT22;70306;44.764;37.688;2024-01-27T03:08:37;5.54;81.21
79024;DHT22;70306;44.764;37.688;2024-01-27T03:09:39;5.57;81.21
79024;DHT22;70306;44.764;37.688;2024-01-27T03:10:41;5.56;81.01
79024;DHT22;70306;44.764;37.688;2024-01-27T03:11:43;5.50;81.05
79024;DHT22;70306;44.764;37.688;2024-01-27T03:12:45;5.49;81.03
79024;DHT22;70306;44.764;37.688;2024-01-27T03:13:46;5.49;81.02
79024;DHT22;70306;44.764;37.688;2024-01-27T03:14:48;5.47;81.16
79024;DHT22;70306;44.764;37.688;2024-01-27T03:15:51;5.51;81.34
79024;DHT22;70306;44.764;37.688;2024-01-27T03:16:53;5.47;81.29
79024;DHT22;70306;44.764;37.688;2024-01-27T03:17:55;5.50;81.07
79024;DHT22;70306;44.764;37.688;2024-01-27T03:18:57;5.49;81.18
79024;DHT22;70306;44.764;37.688;2024-01-27T03:19:59;5.51;81.10
79024;DHT22;70306;44.764;37.688;2024-01-27T03:21:01;5.53;81.27
79024;DHT22;70306;44.764;37.688;2024-01-27T03:22:02;5.51;81.05
79024;DHT22;70306;44.764;37.688;2024-01-27T03:23:04;5.50;81.01
79024;DHT22;70306;44.764;37.688;2024-01-27T03:24:06;5.53;81.11
79024;DHT22;70306;44.764;37.688;2024-01-27T03:25:09;5.53;81.24
79024;DHT22;70306;44.764;37.688;2024-01-27T03:26:12;5.50;80.96
79024;DHT22;70306;44.764;37.688;2024-01-27T03:27:14;5.49;81.03
79024;DHT22;70306;44.764;37.688;2024-01-27T03:28:16;5.50;81.05
79024;DHT22;70306;44.764;37.688;2024-01-27T03:29:18;5.54;81.16
79024;DHT22;70306;44.764;37.688;2024-01-27T03:30:20;5.54;81.16
79024;DHT22;70306;44.764;37.688;2024-01-27T03:31:21;5.54;80.97
79024;DHT22;70306;44.764;37.688;2024-01-27T03:32:23;5.50;81.07
79024;DHT22;70306;44.764;37.688;2024-01-27T03:33:26;5.53;81.29
79024;DHT22;70306;44.764;37.688;2024-01-27T03:34:30;5.51;81.11
79024;DHT22;70306;44.764;37.688;2024-01-27T03:35:32;5.51;81.11
79024;DHT22;70306;44.764;37.688;2024-01-27T03:36:34;5.56;81.17
79024;DHT22;70306;44.764;37.688;2024-01-27T03:37:36;5.54;81.06
79024;DHT22;70306;44.764;37.688;2024-01-27T03:38:38;5.56;81.16
79024;DHT22;70306;44.764;37.688;2024-01-27T03:39:43;5.57;81.16
79024;DHT22;70306;44.764;37.688;2024-01-27T03:40:45;5.58;81.17
79024;DHT22;70306;44.764;37.688;2024-01-27T03:41:47;5.61;81.26
79024;DHT22;70306;44.764;37.688;2024-01-27T03:42:49;5.64;81.19
79024;DHT22;70306;44.764;37.688;2024-01-27T03:43:50;5.66;80.95
79024;DHT22;70306;44.764;37.688;2024-01-27T03:44:52;5.68;80.99
79024;DHT22;70306;44.764;37.688;2024-01-27T03:45:54;5.68;80.80
79024;DHT22;70306;44.764;37.688;2024-01-27T03:46:56;5.70;80.65
79024;DHT22;70306;44.764;37.688;2024-01-27T03:47:58;5.71;80.54
79024;DHT22;70306;44.764;37.688;2024-01-27T03:49:00;5.68;80.40
79024;DHT22;70306;44.764;37.688;2024-01-27T03:50:01;5.67;80.45
79024;DHT22;70306;44.764;37.688;2024-01-27T03:51:03;5.68;80.52
79024;DHT22;70306;44.764;37.688;2024-01-27T03:52:05;5.70;80.67
79024;DHT22;70306;44.764;37.688;2024-01-27T03:53:07;5.68;80.69
79024;DHT22;70306;44.764;37.688;2024-01-27T03:54:09;5.67;80.39
79024;DHT22;70306;44.764;37.688;2024-01-27T03:55:11;5.64;80.36
79024;DHT22;70306;44.764;37.688;2024-01-27T03:56:13;5.64;80.46
79024;DHT22;70306;44.764;37.688;2024-01-27T03:57:14;5.63;80.43
79024;DHT22;70306;44.764;37.688;2024-01-27T03:58:16;5.61;80.45
79024;DHT22;70306;44.764;37.688;2024-01-27T03:59:18;5.58;80.21
79024;DHT22;70306;44.764;37.688;2024-01-27T04:00:20;5.56;80.51
79024;DHT22;70306;44.764;37.688;2024-01-27T04:01:22;5.54;80.64
79024;DHT22;70306;44.764;37.688;2024-01-27T04:02:24;5.58;80.64
79024;DHT22;70306;44.764;37.688;2024-01-27T04:03:25;5.57;80.57
79024;DHT22;70306;44.764;37.688;2024-01-27T04:04:27;5.53;80.47
79024;DHT22;70306;44.764;37.688;2024-01-27T04:05:30;5.54;80.63
79024;DHT22;70306;44.764;37.688;2024-01-27T04:06:41;5.51;80.67
79024;DHT22;70306;44.764;37.688;2024-01-27T04:07:43;5.53;80.67
79024;DHT22;70306;44.764;37.688;2024-01-27T04:08:47;5.51;80.82
79024;DHT22;70306;44.764;37.688;2024-01-27T04:09:49;5.51;80.62
79024;DHT22;70306;44.764;37.688;2024-01-27T04:10:51;5.47;80.68
79024;DHT22;70306;44.764;37.688;2024-01-27T04:11:53;5.44;80.63
79024;DHT22;70306;44.764;37.688;2024-01-27T04:12:55;5.40;80.81
79024;DHT22;70306;44.764;37.688;2024-01-27T04:13:57;5.39;80.76
79024;DHT22;70306;44.764;37.688;2024-01-27T04:15:02;5.36;80.81
79024;DHT22;70306;44.764;37.688;2024-01-27T04:16:05;5.35;80.72
79024;DHT22;70306;44.764;37.688;2024-01-27T04:17:19;5.33;80.87
79024;DHT22;70306;44.764;37.688;2024-01-27T04:18:20;5.31;80.81
79024;DHT22;70306;44.764;37.688;2024-01-27T04:19:22;5.22;80.65
79024;DHT22;70306;44.764;37.688;2024-01-27T04:20:24;5.19;80.94
79024;DHT22;70306;44.764;37.688;2024-01-27T04:21:26;5.15;80.99
79024;DHT22;70306;44.764;37.688;2024-01-27T04:22:28;5.11;80.88
79024;DHT22;70306;44.764;37.688;2024-01-27T04:23:30;5.11;80.93
79024;DHT22;70306;44.764;37.688;2024-01-27T04:24:31;5.07;81.03
79024;DHT22;70306;44.764;37.688;2024-01-27T04:25:33;5.07;81.40
79024;DHT22;70306;44.764;37.688;2024-01-27T04:26:35;5.02;81.26
79024;DHT22;70306;44.764;37.688;2024-01-27T04:27:38;5.01;81.23
79024;DHT22;70306;44.764;37.688;2024-01-27T04:28:40;4.99;81.27
79024;DHT22;70306;44.764;37.688;2024-01-27T04:29:42;4.92;81.31
79024;DHT22;70306;44.764;37.688;2024-01-27T04:30:44;4.94;81.42
79024;DHT22;70306;44.764;37.688;2024-01-27T04:31:46;4.92;81.53
79024;DHT22;70306;44.764;37.688;2024-01-27T04:32:48;4.89;81.32
79024;DHT22;70306;44.764;37.688;2024-01-27T04:33:51;4.88;81.51
79024;DHT22;70306;44.764;37.688;2024-01-27T04:34:53;4.85;81.38
79024;DHT22;70306;44.764;37.688;2024-01-27T04:35:55;4.87;81.47
79024;DHT22;70306;44.764;37.688;2024-01-27T04:36:57;4.87;81.47
79024;DHT22;70306;44.764;37.688;2024-01-27T04:37:59;4.81;81.28
79024;DHT22;70306;44.764;37.688;2024-01-27T04:39:01;4.83;81.42
79024;DHT22;70306;44.764;37.688;2024-01-27T04:40:05;4.84;81.30
79024;DHT22;70306;44.764;37.688;2024-01-27T04:41:07;4.78;81.19
79024;DHT22;70306;44.764;37.688;2024-01-27T04:42:09;4.76;81.21
79024;DHT22;70306;44.764;37.688;2024-01-27T04:43:15;4.69;81.41
79024;DHT22;70306;44.764;37.688;2024-01-27T04:44:17;4.63;81.82
79024;DHT22;70306;44.764;37.688;2024-01-27T04:45:22;4.61;81.97
79024;DHT22;70306;44.764;37.688;2024-01-27T04:46:24;4.59;81.87
79024;DHT22;70306;44.764;37.688;2024-01-27T04:47:27;4.57;81.99
79024;DHT22;70306;44.764;37.688;2024-01-27T04:48:30;4.59;82.11
79024;DHT22;70306;44.764;37.688;2024-01-27T04:49:33;4.56;82.02
79024;DHT22;70306;44.764;37.688;2024-01-27T04:50:35;4.52;82.22
79024;DHT22;70306;44.764;37.688;2024-01-27T04:51:37;4.48;82.42
79024;DHT22;70306;44.764;37.688;2024-01-27T04:52:39;4.49;82.48
79024;DHT22;70306;44.764;37.688;2024-01-27T04:53:43;4.45;82.67
79024;DHT22;70306;44.764;37.688;2024-01-27T04:54:45;4.49;82.87
79024;DHT22;70306;44.764;37.688;2024-01-27T04:55:47;4.52;82.74
79024;DHT22;70306;44.764;37.688;2024-01-27T04:56:49;4.54;82.71
79024;DHT22;70306;44.764;37.688;2024-01-27T04:57:51;4.54;82.70
79024;DHT22;70306;44.764;37.688;2024-01-27T04:58:53;4.53;82.29
79024;DHT22;70306;44.764;37.688;2024-01-27T04:59:55;4.49;82.42
79024;DHT22;70306;44.764;37.688;2024-01-27T05:00:57;4.50;82.53
79024;DHT22;70306;44.764;37.688;2024-01-27T05:01:59;4.53;82.62
79024;DHT22;70306;44.764;37.688;2024-01-27T05:03:01;4.54;82.62
79024;DHT22;70306;44.764;37.688;2024-01-27T05:04:06;4.54;82.44
79024;DHT22;70306;44.764;37.688;2024-01-27T05:05:08;4.53;82.47
79024;DHT22;70306;44.764;37.688;2024-01-27T05:06:11;4.56;82.52
79024;DHT22;70306;44.764;37.688;2024-01-27T05:07:13;4.60;82.51
79024;DHT22;70306;44.764;37.688;2024-01-27T05:08:16;4.61;82.39
79024;DHT22;70306;44.764;37.688;2024-01-27T05:09:18;4.61;82.19
79024;DHT22;70306;44.764;37.688;2024-01-27T05:10:20;4.63;82.19
79024;DHT22;70306;44.764;37.688;2024-01-27T05:11:31;4.67;82.10
79024;DHT22;70306;44.764;37.688;2024-01-27T05:12:33;4.63;81.96
79024;DHT22;70306;44.764;37.688;2024-01-27T05:13:36;4.61;81.63
79024;DHT22;70306;44.764;37.688;2024-01-27T05:14:43;4.57;81.66
79024;DHT22;70306;44.764;37.688;2024-01-27T05:15:47;4.57;81.74
79024;DHT22;70306;44.764;37.688;2024-01-27T05:16:49;4.56;81.64
79024;DHT22;70306;44.764;37.688;2024-01-27T05:17:51;4.53;81.67
79024;DHT22;70306;44.764;37.688;2024-01-27T05:18:53;4.49;81.64
79024;DHT22;70306;44.764;37.688;2024-01-27T05:19:55;4.50;81.70
79024;DHT22;70306;44.764;37.688;2024-01-27T05:20:57;4.54;81.93
79024;DHT22;70306;44.764;37.688;2024-01-27T05:21:59;4.53;81.66
79024;DHT22;70306;44.764;37.688;2024-01-27T05:23:01;4.46;81.36
79024;DHT22;70306;44.764;37.688;2024-01-27T05:24:04;4.46;81.59
79024;DHT22;70306;44.764;37.688;2024-01-27T05:25:06;4.43;81.49
79024;DHT22;70306;44.764;37.688;2024-01-27T05:26:09;4.43;81.51
79024;DHT22;70306;44.764;37.688;2024-01-27T05:27:12;4.43;81.54
79024;DHT22;70306;44.764;37.688;2024-01-27T05:28:14;4.49;81.32
79024;DHT22;70306;44.764;37.688;2024-01-27T05:29:16;4.42;81.32
79024;DHT22;70306;44.764;37.688;2024-01-27T05:30:18;4.46;81.28
79024;DHT22;70306;44.764;37.688;2024-01-27T05:31:21;4.42;81.05
79024;DHT22;70306;44.764;37.688;2024-01-27T05:32:23;4.39;81.18
79024;DHT22;70306;44.764;37.688;2024-01-27T05:33:25;4.39;81.23
79024;DHT22;70306;44.764;37.688;2024-01-27T05:34:27;4.32;81.33
79024;DHT22;70306;44.764;37.688;2024-01-27T05:35:29;4.26;81.52
79024;DHT22;70306;44.764;37.688;2024-01-27T05:36:31;4.22;81.70
79024;DHT22;70306;44.764;37.688;2024-01-27T05:37:33;4.21;81.71
79024;DHT22;70306;44.764;37.688;2024-01-27T05:38:35;4.24;81.95
79024;DHT22;70306;44.764;37.688;2024-01-27T05:39:37;4.25;81.95
79024;DHT22;70306;44.764;37.688;2024-01-27T05:40:39;4.22;81.99
79024;DHT22;70306;44.764;37.688;2024-01-27T05:41:41;4.21;81.93
79024;DHT22;70306;44.764;37.688;2024-01-27T05:42:43;4.24;82.11
79024;DHT22;70306;44.764;37.688;2024-01-27T05:43:46;4.24;81.88
79024;DHT22;70306;44.764;37.688;2024-01-27T05:44:48;4.22;81.79
79024;DHT22;70306;44.764;37.688;2024-01-27T05:45:51;4.24;81.87
79024;DHT22;70306;44.764;37.688;2024-01-27T05:46:53;4.28;82.02
79024;DHT22;70306;44.764;37.688;2024-01-27T05:47:55;4.28;81.66
79024;DHT22;70306;44.764;37.688;2024-01-27T05:48:57;4.28;81.60
79024;DHT22;70306;44.764;37.688;2024-01-27T05:50:05;4.28;81.65
79024;DHT22;70306;44.764;37.688;2024-01-27T05:51:09;4.26;81.46
79024;DHT22;70306;44.764;37.688;2024-01-27T05:52:12;4.28;81.46
79024;DHT22;70306;44.764;37.688;2024-01-27T05:53:15;4.28;81.40
79024;DHT22;70306;44.764;37.688;2024-01-27T05:54:17;4.25;81.36
79024;DHT22;70306;44.764;37.688;2024-01-27T05:55:19;4.22;81.40
79024;DHT22;70306;44.764;37.688;2024-01-27T05:56:21;4.18;81.55
79024;DHT22;70306;44.764;37.688;2024-01-27T05:57:23;4.15;81.89
79024;DHT22;70306;44.764;37.688;2024-01-27T05:58:25;4.17;81.89
79024;DHT22;70306;44.764;37.688;2024-01-27T05:59:27;4.21;82.02
79024;DHT22;70306;44.764;37.688;2024-01-27T06:00:29;4.22;81.78
79024;DHT22;70306;44.764;37.688;2024-01-27T06:01:31;4.21;81.70
79024;DHT22;70306;44.764;37.688;2024-01-27T06:02:33;4.19;81.77
79024;DHT22;70306;44.764;37.688;2024-01-27T06:03:35;4.22;81.89
79024;DHT22;70306;44.764;37.688;2024-01-27T06:04:37;4.25;81.88
79024;DHT22;70306;44.764;37.688;2024-01-27T06:05:41;4.26;81.87
79024;DHT22;70306;44.764;37.688;2024-01-27T06:06:43;4.26;81.86
79024;DHT22;70306;44.764;37.688;2024-01-27T06:07:45;4.29;81.65
79024;DHT22;70306;44.764;37.688;2024-01-27T06:08:49;4.32;82.14
79024;DHT22;70306;44.764;37.688;2024-01-27T06:09:51;4.34;81.68
79024;DHT22;70306;44.764;37.688;2024-01-27T06:10:53;4.31;81.58
79024;DHT22;70306;44.764;37.688;2024-01-27T06:11:59;4.35;81.87
79024;DHT22;70306;44.764;37.688;2024-01-27T06:13:01;4.36;81.59
79024;DHT22;70306;44.764;37.688;2024-01-27T06:14:03;4.35;81.68
79024;DHT22;70306;44.764;37.688;2024-01-27T06:15:05;4.34;81.61
79024;DHT22;70306;44.764;37.688;2024-01-27T06:16:10;4.34;81.60
79024;DHT22;70306;44.764;37.688;2024-01-27T06:17:13;4.36;81.81
79024;DHT22;70306;44.764;37.688;2024-01-27T06:18:16;4.41;81.94
79024;DHT22;70306;44.764;37.688;2024-01-27T06:19:18;4.39;81.66
79024;DHT22;70306;44.764;37.688;2024-01-27T06:20:21;4.43;81.93
79024;DHT22;70306;44.764;37.688;2024-01-27T06:21:23;4.49;81.79
79024;DHT22;70306;44.764;37.688;2024-01-27T06:22:25;4.52;81.77
79024;DHT22;70306;44.764;37.688;2024-01-27T06:23:27;4.56;81.79
79024;DHT22;70306;44.764;37.688;2024-01-27T06:24:29;4.56;81.42
79024;DHT22;70306;44.764;37.688;2024-01-27T06:25:32;4.57;81.64
79024;DHT22;70306;44.764;37.688;2024-01-27T06:26:34;4.60;81.51
79024;DHT22;70306;44.764;37.688;2024-01-27T06:27:37;4.64;81.48
79024;DHT22;70306;44.764;37.688;2024-01-27T06:28:43;4.60;81.03
79024;DHT22;70306;44.764;37.688;2024-01-27T06:29:45;4.60;81.06
79024;DHT22;70306;44.764;37.688;2024-01-27T06:30:47;4.61;81.05
79024;DHT22;70306;44.764;37.688;2024-01-27T06:31:49;4.59;80.70
79024;DHT22;70306;44.764;37.688;2024-01-27T06:32:51;4.53;80.99
79024;DHT22;70306;44.764;37.688;2024-01-27T06:33:53;4.57;81.34